createdAt,value
2023-02-01T00:01:35.042Z,74.04
2023-02-01T00:06:04.757Z,74.10
2023-02-01T00:32:51.653Z,74.25
2023-02-01T00:37:20.390Z,74.29
2023-02-01T00:42:05.430Z,74.37
2023-02-01T00:46:21.387Z,74.16
2023-02-01T00:50:52.121Z,74.36
2023-02-01T01:29:52.351Z,74.12
2023-02-01T01:34:17.615Z,74.11
2023-02-01T01:38:39.722Z,74.00
2023-02-01T01:42:59.290Z,74.02
2023-02-01T01:47:11.900Z,73.83
2023-02-01T01:51:41.091Z,74.05
2023-02-01T01:56:11.597Z,74.08
2023-02-01T02:18:11.803Z,74.03
2023-02-01T02:22:42.906Z,74.07
2023-02-01T02:27:12.123Z,74.11
2023-02-01T02:47:37.487Z,73.98
2023-02-01T02:52:11.252Z,73.74
2023-02-01T02:56:38.930Z,73.74
2023-02-01T03:01:05.141Z,73.77
2023-02-01T03:05:27.281Z,74.04
2023-02-01T03:09:56.331Z,73.77
2023-02-01T03:14:34.466Z,74.06
2023-02-01T03:46:33.551Z,73.76
2023-02-01T03:51:01.798Z,73.82
2023-02-01T03:55:30.785Z,73.65
2023-02-01T04:00:01.157Z,73.42
2023-02-01T04:17:51.753Z,73.54
2023-02-01T04:22:21.114Z,73.72
2023-02-01T04:30:39.273Z,73.52
2023-02-01T04:35:08.780Z,73.51
2023-02-01T04:39:38.172Z,73.55
2023-02-01T04:43:50.205Z,73.50
2023-02-01T04:48:07.822Z,73.51
2023-02-01T04:52:12.613Z,73.48
2023-02-01T05:13:17.190Z,73.54
2023-02-01T05:17:46.052Z,73.42
2023-02-01T05:47:51.728Z,73.56
2023-02-01T05:52:21.090Z,73.80
2023-02-01T05:56:50.333Z,73.86
2023-02-01T06:01:25.093Z,73.96
2023-02-01T06:30:49.758Z,74.01
2023-02-01T06:35:19.491Z,74.17
2023-02-01T06:39:39.060Z,74.26
2023-02-01T06:44:06.696Z,74.34
2023-02-01T06:48:37.322Z,74.28
2023-02-01T06:53:08.291Z,74.36
2023-02-01T07:01:19.177Z,74.55
2023-02-01T07:05:29.561Z,74.45
2023-02-01T07:09:33.842Z,74.29
2023-02-01T07:13:56.873Z,74.43
2023-02-01T07:46:45.966Z,74.09
2023-02-01T07:50:58.409Z,74.16
2023-02-01T07:55:27.977Z,74.26
2023-02-01T07:59:50.981Z,74.18
2023-02-01T08:03:45.751Z,74.35
2023-02-01T08:08:07.512Z,74.55
2023-02-01T08:20:54.232Z,74.26
2023-02-01T10:37:13.391Z,72.73
2023-02-01T10:44:48.293Z,72.60
2023-02-01T10:48:50.449Z,72.51
2023-02-01T10:53:13.352Z,72.92
2023-02-01T10:57:30.387Z,72.83
2023-02-01T11:05:44.704Z,72.46
2023-02-01T11:18:15.273Z,72.50
2023-02-01T11:22:44.892Z,72.48
2023-02-01T11:31:35.144Z,72.07
2023-02-01T11:36:04.797Z,72.41
2023-02-01T12:01:14.343Z,72.42
2023-02-01T12:05:41.815Z,72.37
2023-02-01T12:10:23.250Z,72.39
2023-02-01T12:15:10.800Z,72.17
2023-02-01T12:19:42.254Z,72.89
2023-02-01T12:24:08.147Z,72.82
2023-02-01T13:12:30.205Z,73.21
2023-02-01T13:17:03.122Z,73.32
2023-02-01T13:21:27.001Z,73.26
2023-02-01T13:25:30.636Z,73.29
2023-02-01T13:30:04.043Z,73.26
2023-02-01T13:34:51.670Z,73.77
2023-02-01T13:39:22.000Z,73.79
2023-02-01T14:26:26.583Z,73.65
2023-02-01T14:30:31.539Z,73.88
2023-02-01T14:34:28.270Z,73.92
2023-02-01T14:38:55.693Z,73.94
2023-02-01T14:43:02.357Z,74.23
2023-02-01T14:47:03.758Z,74.20
2023-02-01T14:51:12.698Z,74.12
2023-02-01T14:55:36.357Z,74.45
2023-02-01T15:00:02.665Z,74.51
2023-02-01T15:04:56.306Z,74.91
2023-02-01T15:09:05.298Z,74.98
2023-02-01T15:13:18.000Z,75.07
2023-02-01T15:21:55.430Z,75.13
2023-02-01T15:57:13.491Z,75.29
2023-02-01T16:01:35.502Z,75.31
2023-02-01T16:06:05.742Z,75.36
2023-02-01T16:10:41.104Z,75.64
2023-02-01T16:15:03.265Z,75.81
2023-02-01T16:19:33.462Z,75.63
2023-02-01T16:42:29.130Z,75.77
2023-02-01T16:46:58.551Z,75.58
2023-02-01T16:55:51.254Z,75.54
2023-02-01T17:17:38.460Z,75.86
2023-02-01T17:22:07.065Z,75.62
2023-02-01T17:26:30.073Z,75.77
2023-02-01T17:31:00.782Z,75.91
2023-02-01T17:35:21.120Z,75.74
2023-02-01T17:38:15.900Z,75.59
2023-02-01T17:50:45.601Z,75.65
2023-02-01T18:12:11.890Z,75.82
2023-02-01T18:16:33.694Z,75.98
2023-02-01T18:21:01.001Z,75.90
2023-02-01T18:25:24.756Z,75.99
2023-02-01T18:29:55.265Z,76.09
2023-02-01T18:46:43.041Z,75.90
2023-02-01T18:51:02.746Z,76.17
2023-02-01T18:55:32.082Z,75.94
2023-02-01T19:00:04.233Z,76.06
2023-02-01T19:04:25.993Z,76.24
2023-02-01T19:30:54.394Z,76.37
2023-02-01T19:35:24.144Z,76.25
2023-02-01T19:39:54.045Z,76.23
2023-02-01T19:44:23.905Z,76.37
2023-02-01T19:48:35.374Z,76.26
2023-02-01T19:52:56.501Z,76.25
2023-02-01T19:57:26.038Z,76.08
2023-02-01T20:01:47.493Z,76.24
2023-02-01T20:06:18.943Z,76.28
2023-02-01T20:10:41.404Z,76.29
2023-02-01T20:15:11.795Z,76.42
2023-02-01T20:19:43.552Z,76.71
2023-02-01T20:24:13.935Z,76.29
2023-02-01T20:33:08.219Z,76.34
2023-02-01T21:08:57.536Z,76.01
2023-02-01T21:13:05.343Z,76.07
2023-02-01T21:17:35.009Z,76.19
2023-02-01T21:43:21.198Z,75.85
2023-02-01T21:47:50.558Z,76.11
2023-02-01T21:51:54.060Z,75.89
2023-02-01T21:56:03.145Z,76.01
2023-02-01T22:00:32.505Z,75.90
2023-02-01T22:04:57.011Z,75.67
2023-02-01T22:26:13.375Z,75.70
2023-02-01T22:30:42.804Z,75.65
2023-02-01T22:35:03.250Z,75.80
2023-02-01T22:39:35.544Z,75.80
2023-02-01T22:56:42.312Z,75.61
2023-02-01T23:01:12.122Z,75.54
2023-02-01T23:05:41.893Z,75.65
2023-02-01T23:27:59.882Z,75.33
2023-02-01T23:32:30.137Z,75.31
2023-02-01T23:49:50.670Z,74.93
2023-02-01T23:54:19.580Z,74.55
2023-02-01T23:58:48.193Z,74.43
